createdAt,value
2018-06-02T00:00:42.209Z,0.00
2018-06-02T00:01:42.183Z,0.00
2018-06-02T00:02:42.169Z,0.00
2018-06-02T00:03:42.162Z,0.00
2018-06-02T00:04:42.156Z,0.00
2018-06-02T00:05:42.151Z,0.00
2018-06-02T00:06:42.119Z,0.00
2018-06-02T00:07:42.104Z,0.00
2018-06-02T00:08:42.088Z,0.00
2018-06-02T00:09:42.084Z,0.00
2018-06-02T00:10:42.063Z,0.00
2018-06-02T00:11:42.074Z,0.00
2018-06-02T00:12:42.043Z,0.00
2018-06-02T00:13:42.027Z,0.00
2018-06-02T00:14:42.013Z,0.00
2018-06-02T00:15:42.004Z,0.00
2018-06-02T00:16:41.985Z,0.00
2018-06-02T00:17:41.992Z,0.00
2018-06-02T00:18:41.963Z,0.00
2018-06-02T00:19:41.952Z,0.00
2018-06-02T00:20:41.950Z,0.00
2018-06-02T00:21:41.925Z,0.00
2018-06-02T00:22:41.930Z,0.00
2018-06-02T00:23:41.899Z,0.00
2018-06-02T00:24:41.885Z,0.00
2018-06-02T00:25:41.869Z,0.00
2018-06-02T00:26:41.860Z,0.00
2018-06-02T00:27:41.870Z,0.00
2018-06-02T00:28:41.836Z,0.00
2018-06-02T00:29:41.817Z,0.00
2018-06-02T00:30:41.809Z,0.00
2018-06-02T00:31:41.802Z,0.00
2018-06-02T00:32:41.806Z,0.00
2018-06-02T00:33:41.769Z,0.00
2018-06-02T00:34:41.759Z,0.00
2018-06-02T00:35:41.745Z,0.00
2018-06-02T00:36:41.730Z,0.00
2018-06-02T00:37:42.407Z,0.00
2018-06-02T00:38:41.735Z,0.00
2018-06-02T00:39:41.693Z,0.00
2018-06-02T00:40:41.686Z,0.00
2018-06-02T00:41:41.669Z,0.00
2018-06-02T00:42:41.652Z,0.00
2018-06-02T00:43:41.636Z,0.00
2018-06-02T00:45:02.636Z,0.00
2018-06-02T00:45:41.615Z,0.00
2018-06-02T00:46:41.599Z,0.00
2018-06-02T00:47:41.591Z,0.00
2018-06-02T00:48:41.579Z,0.00
2018-06-02T00:49:41.567Z,0.00
2018-06-02T00:50:41.567Z,0.00
2018-06-02T00:51:41.541Z,0.00
2018-06-02T00:52:41.526Z,0.00
2018-06-02T00:53:41.513Z,0.00
2018-06-02T00:54:41.508Z,0.00
2018-06-02T00:55:41.504Z,0.00
2018-06-02T00:56:41.471Z,0.00
2018-06-02T00:57:41.458Z,0.00
2018-06-02T00:58:41.443Z,0.00
2018-06-02T00:59:41.453Z,0.00
2018-06-02T01:00:41.440Z,0.00
2018-06-02T01:01:41.409Z,0.00
2018-06-02T01:02:41.398Z,0.00
2018-06-02T01:03:41.385Z,0.00
2018-06-02T01:04:41.375Z,0.00
2018-06-02T01:05:41.378Z,0.00
2018-06-02T01:06:41.343Z,0.00
2018-06-02T01:07:41.338Z,0.00
2018-06-02T01:08:41.314Z,0.00
2018-06-02T01:09:41.310Z,0.00
2018-06-02T01:10:41.309Z,0.00
2018-06-02T01:11:41.277Z,0.00
2018-06-02T01:12:41.265Z,0.00
2018-06-02T01:13:41.255Z,0.00
2018-06-02T01:14:41.239Z,0.00
2018-06-02T01:15:41.241Z,0.00
2018-06-02T01:16:41.237Z,0.00
2018-06-02T01:17:41.201Z,0.00
2018-06-02T01:18:41.195Z,0.00
2018-06-02T01:19:41.177Z,0.00
2018-06-02T01:20:41.163Z,0.00
2018-06-02T01:21:41.151Z,0.00
2018-06-02T01:22:41.150Z,0.00
2018-06-02T01:23:41.150Z,0.00
2018-06-02T01:24:41.108Z,0.00
2018-06-02T01:25:41.100Z,0.00
2018-06-02T01:26:41.102Z,0.00
2018-06-02T01:27:41.072Z,0.00
2018-06-02T01:28:41.060Z,0.00
2018-06-02T01:29:41.052Z,0.00
2018-06-02T01:30:41.059Z,0.00
2018-06-02T01:31:41.017Z,0.00
2018-06-02T01:32:41.008Z,0.00
2018-06-02T01:33:40.998Z,0.00
2018-06-02T01:34:40.996Z,0.00
2018-06-02T01:35:40.969Z,0.00
2018-06-02T01:36:40.950Z,0.00
2018-06-02T01:37:40.960Z,0.00
2018-06-02T01:38:40.931Z,0.00
2018-06-02T01:39:40.948Z,0.00
2018-06-02T01:40:40.906Z,0.00
2018-06-02T01:41:40.895Z,0.00
2018-06-02T01:42:40.919Z,0.00
2018-06-02T01:43:40.875Z,0.00
2018-06-02T01:44:40.852Z,0.00
2018-06-02T01:45:40.856Z,0.00
2018-06-02T01:46:40.826Z,0.00
2018-06-02T01:47:40.832Z,0.00
2018-06-02T01:48:40.800Z,0.00
2018-06-02T01:49:40.787Z,0.00
2018-06-02T01:50:40.775Z,0.00
2018-06-02T01:51:40.762Z,0.00
2018-06-02T01:52:40.756Z,0.00
2018-06-02T01:53:40.747Z,0.00
2018-06-02T01:54:40.727Z,0.00
2018-06-02T01:55:40.704Z,0.00
2018-06-02T01:56:40.698Z,0.00
2018-06-02T01:57:40.687Z,0.00
2018-06-02T01:58:40.693Z,0.00
2018-06-02T01:59:40.656Z,0.00
2018-06-02T02:00:40.644Z,0.00
2018-06-02T02:01:40.636Z,0.00
2018-06-02T02:02:40.622Z,0.00
2018-06-02T02:03:40.620Z,0.00
2018-06-02T02:04:40.608Z,0.00
2018-06-02T02:05:40.584Z,0.00
2018-06-02T02:06:40.567Z,0.00
2018-06-02T02:07:40.554Z,0.00
2018-06-02T02:08:40.546Z,0.00
2018-06-02T02:09:40.551Z,0.00
2018-06-02T02:10:40.521Z,0.00
2018-06-02T02:11:40.507Z,0.00
2018-06-02T02:12:40.490Z,0.00
2018-06-02T02:13:40.484Z,0.00
2018-06-02T02:14:40.487Z,0.00
2018-06-02T02:15:40.455Z,0.00
2018-06-02T02:16:40.442Z,0.00
2018-06-02T02:17:40.429Z,0.00
2018-06-02T02:18:40.416Z,0.00
2018-06-02T02:19:40.403Z,0.00
2018-06-02T02:20:40.406Z,0.00
2018-06-02T02:21:40.393Z,0.00
2018-06-02T02:22:40.361Z,0.00
2018-06-02T02:23:40.359Z,0.00
2018-06-02T02:24:40.336Z,0.00
2018-06-02T02:25:40.348Z,0.00
2018-06-02T02:26:40.330Z,0.00
2018-06-02T02:27:40.299Z,0.00
2018-06-02T02:28:40.304Z,0.00
2018-06-02T02:29:40.275Z,0.00
2018-06-02T02:30:40.266Z,0.00
2018-06-02T02:31:40.261Z,0.00
2018-06-02T02:32:40.235Z,0.00
2018-06-02T02:33:40.228Z,0.00
2018-06-02T02:34:40.213Z,0.00
2018-06-02T02:35:40.211Z,0.00
2018-06-02T02:36:40.200Z,0.00
2018-06-02T02:37:40.175Z,0.00
2018-06-02T02:38:40.158Z,0.00
2018-06-02T02:39:40.145Z,0.00
2018-06-02T02:40:40.150Z,0.00
2018-06-02T02:41:40.123Z,0.00
2018-06-02T02:42:40.109Z,0.00
2018-06-02T02:43:40.094Z,0.00
2018-06-02T02:44:40.103Z,0.00
2018-06-02T02:45:40.074Z,0.00
2018-06-02T02:46:40.059Z,0.00
2018-06-02T02:47:40.044Z,0.00
2018-06-02T02:48:40.047Z,0.00
2018-06-02T02:49:40.021Z,0.00
2018-06-02T02:50:40.024Z,0.00
2018-06-02T02:51:39.995Z,0.00
2018-06-02T02:52:39.985Z,0.00
2018-06-02T02:53:39.968Z,0.00
2018-06-02T02:54:39.951Z,0.00
2018-06-02T02:55:39.959Z,0.00
2018-06-02T02:56:39.927Z,0.00
2018-06-02T02:57:39.916Z,0.00
2018-06-02T02:58:39.901Z,0.00
2018-06-02T02:59:39.908Z,0.00
2018-06-02T03:00:39.879Z,0.00
2018-06-02T03:01:39.869Z,0.00
2018-06-02T03:02:39.852Z,0.00
2018-06-02T03:03:39.859Z,0.00
2018-06-02T03:04:39.828Z,0.00
2018-06-02T03:05:39.844Z,0.00
2018-06-02T03:06:39.799Z,0.00
2018-06-02T03:07:39.792Z,0.00
2018-06-02T03:08:39.779Z,0.00
2018-06-02T03:09:39.761Z,0.00
2018-06-02T03:10:39.764Z,0.00
2018-06-02T03:11:39.744Z,0.00
2018-06-02T03:12:39.744Z,0.00
2018-06-02T03:13:39.725Z,0.00
2018-06-02T03:14:39.700Z,4.00
2018-06-02T03:15:39.684Z,4.00
2018-06-02T03:16:39.674Z,4.00
2018-06-02T03:17:39.681Z,4.00
2018-06-02T03:18:39.643Z,4.00
2018-06-02T03:19:39.635Z,4.00
2018-06-02T03:20:39.620Z,4.00
2018-06-02T03:21:39.614Z,4.00
2018-06-02T03:22:39.617Z,4.00
2018-06-02T03:23:39.582Z,8.00
2018-06-02T03:24:39.569Z,4.00
2018-06-02T03:25:39.556Z,12.00
2018-06-02T03:26:39.547Z,8.00
2018-06-02T03:27:39.530Z,8.00
2018-06-02T03:28:39.537Z,12.00
2018-06-02T03:29:39.507Z,12.00
2018-06-02T03:30:39.498Z,8.00
2018-06-02T03:31:39.486Z,12.00
2018-06-02T03:32:39.469Z,16.00
2018-06-02T03:33:39.477Z,16.00
2018-06-02T03:34:39.448Z,16.00
2018-06-02T03:35:39.457Z,20.00
2018-06-02T03:36:39.414Z,20.00
2018-06-02T03:37:39.406Z,20.00
2018-06-02T03:38:39.390Z,20.00
2018-06-02T03:39:39.391Z,16.00
2018-06-02T03:40:39.379Z,20.00
2018-06-02T03:41:39.356Z,24.00
2018-06-02T03:42:39.337Z,20.00
2018-06-02T03:43:39.337Z,24.00
2018-06-02T03:44:39.317Z,24.00
2018-06-02T03:45:39.316Z,36.00
2018-06-02T03:46:39.286Z,40.00
2018-06-02T03:47:39.274Z,40.00
2018-06-02T03:48:39.259Z,36.00
2018-06-02T03:49:39.256Z,36.00
2018-06-02T03:50:39.234Z,40.00
2018-06-02T03:51:39.234Z,40.00
2018-06-02T03:52:39.214Z,48.00
2018-06-02T03:53:39.193Z,52.00
2018-06-02T03:54:39.176Z,48.00
2018-06-02T03:55:39.183Z,48.00
2018-06-02T03:56:39.155Z,48.00
2018-06-02T03:57:39.140Z,52.00
2018-06-02T03:58:39.127Z,52.00
2018-06-02T03:59:39.117Z,56.00
2018-06-02T04:00:39.117Z,52.00
2018-06-02T04:01:39.086Z,60.00
2018-06-02T04:02:39.093Z,60.00
2018-06-02T04:03:39.063Z,56.00
2018-06-02T04:04:39.049Z,52.00
2018-06-02T04:05:39.036Z,60.00
2018-06-02T04:06:39.027Z,52.00
2018-06-02T04:07:39.023Z,56.00
2018-06-02T04:08:39.036Z,56.00
2018-06-02T04:09:38.989Z,60.00
2018-06-02T04:10:38.973Z,68.00
2018-06-02T04:11:38.955Z,72.00
2018-06-02T04:12:38.969Z,60.00
2018-06-02T04:13:38.933Z,56.00
2018-06-02T04:14:38.915Z,72.00
2018-06-02T04:15:38.909Z,76.00
2018-06-02T04:16:38.894Z,84.00
2018-06-02T04:17:38.887Z,84.00
2018-06-02T04:18:38.890Z,76.00
2018-06-02T04:19:38.855Z,92.00
2018-06-02T04:20:38.845Z,88.00
2018-06-02T04:21:38.827Z,76.00
2018-06-02T04:22:38.821Z,80.00
2018-06-02T04:23:38.802Z,88.00
2018-06-02T04:24:38.808Z,92.00
2018-06-02T04:25:38.781Z,104.00
2018-06-02T04:26:38.772Z,116.00
2018-06-02T04:27:38.754Z,128.00
2018-06-02T04:28:38.759Z,132.00
2018-06-02T04:29:38.733Z,148.00
2018-06-02T04:30:38.712Z,152.00
2018-06-02T04:31:38.704Z,152.00
2018-06-02T04:32:38.700Z,156.00
2018-06-02T04:33:38.678Z,168.00
2018-06-02T04:34:38.678Z,172.00
2018-06-02T04:35:38.659Z,168.00
2018-06-02T04:36:38.639Z,164.00
2018-06-02T04:37:38.628Z,156.00
2018-06-02T04:38:38.614Z,156.00
2018-06-02T04:39:38.623Z,164.00
2018-06-02T04:40:38.591Z,172.00
2018-06-02T04:41:38.643Z,180.00
2018-06-02T04:42:38.578Z,180.00
2018-06-02T04:43:38.547Z,180.00
2018-06-02T04:44:38.535Z,180.00
2018-06-02T04:45:38.540Z,200.00
2018-06-02T04:46:38.508Z,196.00
2018-06-02T04:47:38.490Z,204.00
2018-06-02T04:48:38.488Z,192.00
2018-06-02T04:49:38.468Z,180.00
2018-06-02T04:50:38.474Z,188.00
2018-06-02T04:51:38.467Z,196.00
2018-06-02T04:52:38.435Z,192.00
2018-06-02T04:53:38.439Z,184.00
2018-06-02T04:54:38.408Z,180.00
2018-06-02T04:55:38.394Z,176.00
2018-06-02T04:56:38.398Z,160.00
2018-06-02T04:57:38.365Z,164.00
2018-06-02T04:58:38.359Z,164.00
2018-06-02T04:59:38.362Z,160.00
2018-06-02T05:00:38.331Z,172.00
2018-06-02T05:01:38.315Z,160.00
2018-06-02T05:02:38.321Z,148.00
2018-06-02T05:03:38.308Z,144.00
2018-06-02T05:04:38.282Z,156.00
2018-06-02T05:05:38.285Z,156.00
2018-06-02T05:06:38.253Z,164.00
2018-06-02T05:07:38.243Z,180.00
2018-06-02T05:08:38.256Z,200.00
2018-06-02T05:09:38.223Z,200.00
2018-06-02T05:10:38.204Z,232.00
2018-06-02T05:11:38.184Z,232.00
2018-06-02T05:12:38.179Z,244.00
2018-06-02T05:13:38.165Z,220.00
2018-06-02T05:14:38.166Z,212.00
2018-06-02T05:15:38.135Z,204.00
2018-06-02T05:16:38.127Z,188.00
2018-06-02T05:17:38.119Z,192.00
2018-06-02T05:18:38.096Z,172.00
2018-06-02T05:19:38.111Z,184.00
2018-06-02T05:20:38.074Z,216.00
2018-06-02T05:21:38.069Z,224.00
2018-06-02T05:22:38.058Z,240.00
2018-06-02T05:23:38.035Z,224.00
2018-06-02T05:24:38.035Z,276.00
2018-06-02T05:25:38.032Z,208.00
2018-06-02T05:26:37.997Z,204.00
2018-06-02T05:27:37.991Z,232.00
2018-06-02T05:28:37.972Z,228.00
2018-06-02T05:29:37.962Z,180.00
2018-06-02T05:30:37.961Z,156.00
2018-06-02T05:31:37.935Z,172.00
2018-06-02T05:32:37.920Z,204.00
2018-06-02T05:33:37.908Z,212.00
2018-06-02T05:34:37.895Z,168.00
2018-06-02T05:35:37.883Z,172.00
2018-06-02T05:36:37.886Z,172.00
2018-06-02T05:37:37.854Z,192.00
2018-06-02T05:38:37.841Z,188.00
2018-06-02T05:39:37.824Z,156.00
2018-06-02T05:40:37.816Z,156.00
2018-06-02T05:41:37.817Z,148.00
2018-06-02T05:42:37.785Z,192.00
2018-06-02T05:43:37.793Z,220.00
2018-06-02T05:44:37.763Z,216.00
2018-06-02T05:45:37.751Z,212.00
2018-06-02T05:46:37.738Z,188.00
2018-06-02T05:47:37.737Z,228.00
2018-06-02T05:48:37.717Z,272.00
2018-06-02T05:49:37.698Z,224.00
2018-06-02T05:50:37.685Z,180.00
2018-06-02T05:51:37.672Z,184.00
2018-06-02T05:52:37.676Z,224.00
2018-06-02T05:53:37.662Z,200.00
2018-06-02T05:54:37.657Z,256.00
2018-06-02T05:55:37.615Z,296.00
2018-06-02T05:56:37.608Z,428.00
2018-06-02T05:57:37.596Z,584.00
2018-06-02T05:58:37.579Z,616.00
2018-06-02T05:59:37.588Z,464.00
2018-06-02T06:00:37.553Z,480.00
2018-06-02T06:01:37.540Z,472.00
2018-06-02T06:02:37.530Z,456.00
2018-06-02T06:03:37.535Z,440.00
2018-06-02T06:04:37.524Z,492.00
2018-06-02T06:05:37.494Z,376.00
2018-06-02T06:06:37.495Z,304.00
2018-06-02T06:07:37.479Z,356.00
2018-06-02T06:08:37.454Z,252.00
2018-06-02T06:09:37.443Z,272.00
2018-06-02T06:10:37.429Z,208.00
2018-06-02T06:11:37.413Z,296.00
2018-06-02T06:12:37.402Z,288.00
2018-06-02T06:13:37.409Z,368.00
2018-06-02T06:14:37.376Z,384.00
2018-06-02T06:15:37.366Z,336.00
2018-06-02T06:16:37.348Z,312.00
2018-06-02T06:17:37.342Z,364.00
2018-06-02T06:18:37.344Z,452.00
2018-06-02T06:19:37.442Z,476.00
2018-06-02T06:20:37.306Z,464.00
2018-06-02T06:21:37.288Z,564.00
2018-06-02T06:22:37.272Z,564.00
2018-06-02T06:23:37.261Z,596.00
2018-06-02T06:24:37.254Z,560.00
2018-06-02T06:25:37.253Z,584.00
2018-06-02T06:26:37.221Z,584.00
2018-06-02T06:27:37.222Z,420.00
2018-06-02T06:28:37.201Z,368.00
2018-06-02T06:29:37.204Z,372.00
2018-06-02T06:30:37.186Z,360.00
2018-06-02T06:31:37.176Z,304.00
2018-06-02T06:32:37.150Z,284.00
2018-06-02T06:33:37.131Z,268.00
2018-06-02T06:34:37.129Z,316.00
2018-06-02T06:35:37.128Z,328.00
2018-06-02T06:36:37.096Z,316.00
2018-06-02T06:37:37.082Z,404.00
2018-06-02T06:38:37.078Z,468.00
2018-06-02T06:39:37.059Z,420.00
2018-06-02T06:40:37.056Z,340.00
2018-06-02T06:41:37.049Z,348.00
2018-06-02T06:42:37.031Z,332.00
2018-06-02T06:43:37.005Z,372.00
2018-06-02T06:44:37.071Z,344.00
2018-06-02T06:45:36.982Z,348.00
2018-06-02T06:46:37.038Z,352.00
2018-06-02T06:47:36.955Z,396.00
2018-06-02T06:48:36.945Z,408.00
2018-06-02T06:49:36.930Z,432.00
2018-06-02T06:50:36.948Z,408.00
2018-06-02T06:51:36.903Z,348.00
2018-06-02T06:52:36.907Z,256.00
2018-06-02T06:53:36.886Z,324.00
2018-06-02T06:54:36.870Z,344.00
2018-06-02T06:55:36.853Z,332.00
2018-06-02T06:56:36.854Z,336.00
2018-06-02T06:57:36.891Z,340.00
2018-06-02T06:58:36.817Z,312.00
2018-06-02T06:59:36.800Z,304.00
2018-06-02T07:00:36.795Z,304.00
2018-06-02T07:01:36.776Z,288.00
2018-06-02T07:02:36.781Z,300.00
2018-06-02T07:03:36.750Z,324.00
2018-06-02T07:04:36.744Z,348.00
2018-06-02T07:05:36.725Z,380.00
2018-06-02T07:06:36.711Z,456.00
2018-06-02T07:07:36.700Z,524.00
2018-06-02T07:08:36.706Z,704.00
2018-06-02T07:09:36.675Z,940.00
2018-06-02T07:10:36.674Z,1052.00
2018-06-02T07:11:36.651Z,1044.00
2018-06-02T07:12:36.636Z,792.00
2018-06-02T07:13:36.620Z,572.00
2018-06-02T07:14:36.623Z,476.00
2018-06-02T07:15:36.609Z,404.00
2018-06-02T07:16:36.597Z,460.00
2018-06-02T07:17:36.571Z,516.00
2018-06-02T07:18:36.573Z,632.00
2018-06-02T07:19:36.547Z,752.00
2018-06-02T07:20:36.532Z,848.00
2018-06-02T07:21:36.520Z,1132.00
2018-06-02T07:22:36.508Z,1420.00
2018-06-02T07:23:36.501Z,1172.00
2018-06-02T07:24:36.498Z,1248.00
2018-06-02T07:25:36.469Z,1380.00
2018-06-02T07:26:36.457Z,1360.00
2018-06-02T07:27:36.507Z,1612.00
2018-06-02T07:28:36.447Z,1540.00
2018-06-02T07:29:36.417Z,1460.00
2018-06-02T07:30:36.424Z,1260.00
2018-06-02T07:31:36.392Z,740.00
2018-06-02T07:32:36.378Z,692.00
2018-06-02T07:33:36.376Z,728.00
2018-06-02T07:34:36.367Z,640.00
2018-06-02T07:35:36.364Z,544.00
2018-06-02T07:36:36.334Z,624.00
2018-06-02T07:37:36.324Z,528.00
2018-06-02T07:38:36.307Z,560.00
2018-06-02T07:39:36.307Z,500.00
2018-06-02T07:40:36.292Z,592.00
2018-06-02T07:41:36.291Z,692.00
2018-06-02T07:42:36.260Z,652.00
2018-06-02T07:43:36.247Z,780.00
2018-06-02T07:44:36.236Z,892.00
2018-06-02T07:45:36.222Z,1148.00
2018-06-02T07:46:36.222Z,936.00
2018-06-02T07:47:36.198Z,628.00
2018-06-02T07:48:36.195Z,592.00
2018-06-02T07:49:36.175Z,668.00
2018-06-02T07:50:36.160Z,740.00
2018-06-02T07:51:36.169Z,688.00
2018-06-02T07:52:36.153Z,532.00
2018-06-02T07:53:36.128Z,544.00
2018-06-02T07:54:36.108Z,532.00
2018-06-02T07:55:36.098Z,456.00
2018-06-02T07:56:36.101Z,456.00
2018-06-02T07:57:36.112Z,448.00
2018-06-02T07:58:36.077Z,412.00
2018-06-02T07:59:36.049Z,432.00
2018-06-02T08:00:36.038Z,512.00
2018-06-02T08:01:36.024Z,672.00
2018-06-02T08:02:36.043Z,640.00
2018-06-02T08:03:36.001Z,704.00
2018-06-02T08:04:36.001Z,740.00
2018-06-02T08:05:35.975Z,876.00
2018-06-02T08:06:35.963Z,992.00
2018-06-02T08:07:35.950Z,784.00
2018-06-02T08:08:35.996Z,868.00
2018-06-02T08:09:35.941Z,892.00
2018-06-02T08:10:35.910Z,1252.00
2018-06-02T08:11:35.915Z,1816.00
2018-06-02T08:12:35.889Z,1484.00
2018-06-02T08:13:35.882Z,1060.00
2018-06-02T08:14:35.861Z,1040.00
2018-06-02T08:15:35.848Z,1060.00
2018-06-02T08:16:35.860Z,1136.00
2018-06-02T08:17:35.826Z,984.00
2018-06-02T08:18:35.815Z,864.00
2018-06-02T08:19:35.816Z,844.00
2018-06-02T08:20:35.820Z,808.00
2018-06-02T08:21:35.800Z,944.00
2018-06-02T08:22:35.766Z,940.00
2018-06-02T08:23:35.754Z,924.00
2018-06-02T08:24:35.743Z,928.00
2018-06-02T08:25:35.733Z,960.00
2018-06-02T08:26:35.750Z,944.00
2018-06-02T08:27:35.721Z,896.00
2018-06-02T08:28:35.694Z,868.00
2018-06-02T08:29:35.683Z,800.00
2018-06-02T08:30:35.671Z,708.00
2018-06-02T08:31:35.673Z,756.00
2018-06-02T08:32:35.645Z,756.00
2018-06-02T08:33:35.673Z,732.00
2018-06-02T08:34:35.621Z,768.00
2018-06-02T08:35:35.620Z,780.00
2018-06-02T08:36:35.610Z,808.00
2018-06-02T08:37:35.588Z,844.00
2018-06-02T08:38:35.570Z,888.00
2018-06-02T08:39:35.563Z,840.00
2018-06-02T08:40:35.562Z,852.00
2018-06-02T08:41:35.534Z,800.00
2018-06-02T08:42:35.546Z,804.00
2018-06-02T08:43:35.510Z,852.00
2018-06-02T08:44:35.499Z,908.00
2018-06-02T08:45:35.487Z,968.00
2018-06-02T08:46:35.493Z,924.00
2018-06-02T08:47:35.461Z,920.00
2018-06-02T08:48:35.453Z,1020.00
2018-06-02T08:49:35.446Z,1128.00
2018-06-02T08:50:35.426Z,1292.00
2018-06-02T08:51:35.425Z,1296.00
2018-06-02T08:52:35.403Z,1392.00
2018-06-02T08:53:35.387Z,1372.00
2018-06-02T08:54:35.376Z,1416.00
2018-06-02T08:55:35.362Z,1132.00
2018-06-02T08:56:35.365Z,1200.00
2018-06-02T08:57:35.339Z,1084.00
2018-06-02T08:58:35.341Z,1548.00
2018-06-02T08:59:35.317Z,1264.00
2018-06-02T09:00:35.304Z,1308.00
2018-06-02T09:01:35.292Z,1076.00
2018-06-02T09:02:35.305Z,1252.00
2018-06-02T09:03:35.269Z,1096.00
2018-06-02T09:04:35.255Z,1156.00
2018-06-02T09:05:35.243Z,1196.00
2018-06-02T09:06:35.244Z,1480.00
2018-06-02T09:07:35.233Z,1844.00
2018-06-02T09:08:35.226Z,1400.00
2018-06-02T09:09:35.204Z,1496.00
2018-06-02T09:10:35.191Z,1692.00
2018-06-02T09:11:35.171Z,2668.00
2018-06-02T09:12:35.168Z,2808.00
2018-06-02T09:13:35.165Z,2792.00
2018-06-02T09:14:35.140Z,2808.00
2018-06-02T09:15:35.172Z,4988.00
2018-06-02T09:16:35.121Z,5268.00
2018-06-02T09:17:35.105Z,3688.00
2018-06-02T09:18:35.095Z,3140.00
2018-06-02T09:19:35.104Z,4068.00
2018-06-02T09:20:35.069Z,3428.00
2018-06-02T09:21:35.063Z,3008.00
2018-06-02T09:22:35.054Z,3300.00
2018-06-02T09:23:35.041Z,2148.00
2018-06-02T09:24:35.042Z,1844.00
2018-06-02T09:25:35.028Z,1460.00
2018-06-02T09:26:35.008Z,1300.00
2018-06-02T09:27:35.002Z,1320.00
2018-06-02T09:28:34.998Z,1584.00
2018-06-02T09:29:35.001Z,1328.00
2018-06-02T09:30:34.986Z,1512.00
2018-06-02T09:31:34.959Z,1636.00
2018-06-02T09:32:34.949Z,1864.00
2018-06-02T09:33:34.935Z,2544.00
2018-06-02T09:34:34.928Z,2004.00
2018-06-02T09:35:34.936Z,2712.00
2018-06-02T09:36:34.908Z,1940.00
2018-06-02T09:37:34.893Z,1804.00
2018-06-02T09:38:34.884Z,1428.00
2018-06-02T09:39:34.875Z,1200.00
2018-06-02T09:40:34.860Z,1084.00
2018-06-02T09:41:34.872Z,1296.00
2018-06-02T09:42:34.840Z,2724.00
2018-06-02T09:43:34.841Z,2292.00
2018-06-02T09:44:34.827Z,1484.00
2018-06-02T09:45:34.809Z,1020.00
2018-06-02T09:46:34.820Z,1308.00
2018-06-02T09:47:34.792Z,2540.00
2018-06-02T09:48:34.777Z,5268.00
2018-06-02T09:49:34.769Z,10520.00
2018-06-02T09:50:34.776Z,23392.00
2018-06-02T09:51:34.745Z,8852.00
2018-06-02T09:52:34.757Z,6220.00
2018-06-02T09:53:34.732Z,2820.00
2018-06-02T09:54:34.719Z,5956.00
2018-06-02T09:55:34.713Z,4648.00
2018-06-02T09:56:34.707Z,7404.00
2018-06-02T09:57:34.699Z,3004.00
2018-06-02T09:58:34.699Z,2272.00
2018-06-02T09:59:34.676Z,1668.00
2018-06-02T10:00:34.670Z,1404.00
2018-06-02T10:01:34.665Z,1120.00
2018-06-02T10:02:34.648Z,1132.00
2018-06-02T10:03:34.657Z,1140.00
2018-06-02T10:04:34.677Z,1408.00
2018-06-02T10:05:34.626Z,1272.00
2018-06-02T10:06:34.613Z,1200.00
2018-06-02T10:07:34.605Z,1192.00
2018-06-02T10:08:34.611Z,1276.00
2018-06-02T10:09:34.587Z,1388.00
2018-06-02T10:10:34.633Z,1348.00
2018-06-02T10:11:34.567Z,1328.00
2018-06-02T10:12:34.554Z,1352.00
2018-06-02T10:13:34.551Z,1492.00
2018-06-02T10:14:34.541Z,1392.00
2018-06-02T10:15:34.541Z,1252.00
2018-06-02T10:16:34.533Z,1204.00
2018-06-02T10:17:34.506Z,1236.00
2018-06-02T10:18:34.496Z,1260.00
2018-06-02T10:19:34.491Z,1280.00
2018-06-02T10:20:34.494Z,1300.00
2018-06-02T10:21:34.503Z,1420.00
2018-06-02T10:22:34.456Z,1536.00
2018-06-02T10:23:34.445Z,1452.00
2018-06-02T10:24:34.437Z,1396.00
2018-06-02T10:25:34.435Z,1444.00
2018-06-02T10:26:34.413Z,1496.00
2018-06-02T10:27:34.421Z,1500.00
2018-06-02T10:28:34.393Z,1396.00
2018-06-02T10:29:34.411Z,1344.00
2018-06-02T10:30:34.373Z,1352.00
2018-06-02T10:31:34.364Z,1504.00
2018-06-02T10:32:34.349Z,1700.00
2018-06-02T10:33:34.354Z,1928.00
2018-06-02T10:34:34.330Z,2168.00
2018-06-02T10:35:34.388Z,2152.00
2018-06-02T10:36:34.332Z,2728.00
2018-06-02T10:37:34.301Z,3780.00
2018-06-02T10:38:34.286Z,2360.00
2018-06-02T10:39:34.278Z,1852.00
2018-06-02T10:40:34.268Z,1548.00
2018-06-02T10:41:34.277Z,1460.00
2018-06-02T10:42:34.245Z,1428.00
2018-06-02T10:43:34.267Z,1532.00
2018-06-02T10:44:34.277Z,1684.00
2018-06-02T10:45:34.218Z,1944.00
2018-06-02T10:46:34.205Z,2348.00
2018-06-02T10:47:34.210Z,4188.00
2018-06-02T10:48:34.184Z,3836.00
2018-06-02T10:49:34.176Z,3196.00
2018-06-02T10:50:34.181Z,3212.00
2018-06-02T10:51:34.152Z,3652.00
2018-06-02T10:52:34.144Z,7772.00
2018-06-02T10:53:34.136Z,2940.00
2018-06-02T10:54:34.137Z,2376.00
2018-06-02T10:55:34.121Z,2040.00
2018-06-02T10:56:34.119Z,1556.00
2018-06-02T10:57:34.097Z,1336.00
2018-06-02T10:58:34.086Z,1336.00
2018-06-02T10:59:34.075Z,1428.00
2018-06-02T11:00:34.072Z,1300.00
2018-06-02T11:01:34.077Z,1420.00
2018-06-02T11:02:34.051Z,1424.00
2018-06-02T11:03:34.038Z,1452.00
2018-06-02T11:04:34.028Z,1516.00
2018-06-02T11:05:34.021Z,1560.00
2018-06-02T11:06:34.006Z,1640.00
2018-06-02T11:07:34.015Z,2052.00
2018-06-02T11:08:33.992Z,2136.00
2018-06-02T11:09:33.980Z,2300.00
2018-06-02T11:10:33.965Z,2020.00
2018-06-02T11:11:33.951Z,1952.00
2018-06-02T11:12:33.960Z,1800.00
2018-06-02T11:13:33.936Z,1544.00
2018-06-02T11:14:33.930Z,1392.00
2018-06-02T11:15:33.916Z,1312.00
2018-06-02T11:16:33.912Z,1324.00
2018-06-02T11:17:33.912Z,1352.00
2018-06-02T11:18:33.910Z,1380.00
2018-06-02T11:19:33.919Z,1476.00
2018-06-02T11:20:33.865Z,1496.00
2018-06-02T11:21:33.861Z,1688.00
2018-06-02T11:22:33.845Z,1868.00
2018-06-02T11:23:33.851Z,2028.00
2018-06-02T11:24:33.827Z,2244.00
2018-06-02T11:25:33.817Z,2584.00
2018-06-02T11:26:33.803Z,2828.00
2018-06-02T11:27:33.796Z,2796.00
2018-06-02T11:28:33.799Z,4160.00
2018-06-02T11:29:33.769Z,6904.00
2018-06-02T11:30:33.779Z,6304.00
2018-06-02T11:31:33.752Z,2688.00
2018-06-02T11:32:33.740Z,2796.00
2018-06-02T11:33:33.754Z,2528.00
2018-06-02T11:34:33.731Z,2208.00
2018-06-02T11:35:33.716Z,1724.00
2018-06-02T11:36:33.705Z,1612.00
2018-06-02T11:37:33.697Z,1836.00
2018-06-02T11:38:33.708Z,1640.00
2018-06-02T11:39:33.686Z,1168.00
2018-06-02T11:40:33.676Z,1032.00
2018-06-02T11:41:33.668Z,964.00
2018-06-02T11:42:33.653Z,952.00
2018-06-02T11:43:33.646Z,992.00
2018-06-02T11:44:33.654Z,1148.00
2018-06-02T11:45:33.656Z,1400.00
2018-06-02T11:46:33.621Z,1728.00
2018-06-02T11:47:33.616Z,2196.00
2018-06-02T11:48:33.611Z,3056.00
2018-06-02T11:49:33.611Z,4700.00
2018-06-02T11:50:33.587Z,3444.00
2018-06-02T11:51:33.577Z,2920.00
2018-06-02T11:52:33.569Z,5408.00
2018-06-02T11:53:33.561Z,2792.00
2018-06-02T11:54:33.566Z,2996.00
2018-06-02T11:55:33.545Z,4424.00
2018-06-02T11:56:33.536Z,2492.00
2018-06-02T11:57:33.542Z,2052.00
2018-06-02T11:58:33.518Z,1652.00
2018-06-02T11:59:33.511Z,1424.00
2018-06-02T12:00:33.524Z,1412.00
2018-06-02T12:01:33.494Z,1640.00
2018-06-02T12:02:33.490Z,1556.00
2018-06-02T12:03:33.480Z,1588.00
2018-06-02T12:04:33.471Z,1872.00
2018-06-02T12:05:33.456Z,1996.00
2018-06-02T12:06:33.465Z,1984.00
2018-06-02T12:07:33.447Z,1988.00
2018-06-02T12:08:33.437Z,2240.00
2018-06-02T12:09:33.433Z,2920.00
2018-06-02T12:10:33.418Z,3208.00
2018-06-02T12:11:33.426Z,5012.00
2018-06-02T12:12:33.406Z,4572.00
2018-06-02T12:13:33.394Z,4180.00
2018-06-02T12:14:33.381Z,4748.00
2018-06-02T12:15:33.374Z,4716.00
2018-06-02T12:16:33.386Z,4780.00
2018-06-02T12:17:33.363Z,4812.00
2018-06-02T12:18:33.355Z,4580.00
2018-06-02T12:19:33.347Z,1800.00
2018-06-02T12:20:33.364Z,1416.00
2018-06-02T12:21:33.357Z,4360.00
2018-06-02T12:22:33.327Z,3312.00
2018-06-02T12:23:33.323Z,3628.00
2018-06-02T12:24:33.317Z,3716.00
2018-06-02T12:25:33.318Z,2388.00
2018-06-02T12:26:33.307Z,2140.00
2018-06-02T12:27:33.321Z,2204.00
2018-06-02T12:28:33.297Z,3824.00
2018-06-02T12:29:33.333Z,3944.00
2018-06-02T12:30:33.286Z,2324.00
2018-06-02T12:31:33.286Z,2772.00
2018-06-02T12:32:33.275Z,2248.00
2018-06-02T12:33:33.283Z,3236.00
2018-06-02T12:34:33.259Z,3148.00
2018-06-02T12:35:33.257Z,3056.00